Details From KSBP - San Luis Co Rgnl
To KWHP - Whiteman
Flight Number -
Tags Decoded
Created
Modified
Stats Distance 135 nm / 251 km
Max Altitude 0 ft / 0 m
Waypoints 6
Social Downloads 2
Likes 0
Share VATSIM

Download

Looking for another format? Having issues loading an existing format? Contact us
Advertisement - Login to hide

Notes

Decoded

Route

KSBP POZOE RZS FIM NAFFU KWHP

ID Type Via Altitude Latitude Longitude Leg Dist Tot Dist Heading (true) Name
O KSBP APT - 0 ft / 0 m 35.24218˚ -120.64932˚ - 0 nm - -
POZOE FIX - 0 ft / 0 m 35.16181˚ -120.24762˚ 20 nm 20 nm 104° / 104° -
RZS VOR - 0 ft / 0 m 34.50953˚ -119.77100˚ 45 nm 65 nm 149° / 149° SAN MARCUS VORTAC
FIM VOR - 0 ft / 0 m 34.35669˚ -118.88128˚ 45 nm 110 nm 102° / 102° FILLMORE VORTAC
NAFFU FIX - 0 ft / 0 m 34.33664˚ -118.54981˚ 16 nm 127 nm 94° / 94° -
O KWHP APT - 0 ft / 0 m 34.26358˚ -118.41803˚ 7 nm 135 nm 124° / 124° -

Altitude Profile

Advertisement - Login to hide

KSBP

Details ICAO KSBP (SBP)
Name San Luis Co Rgnl
Region United States
Timezone America/Los_Angeles (UTC-7.0)
Stats Elevation 212 ft / 65 m (AMSL)
Location 35.237141° -120.643460°
Runways 2
Magnetic Variation 12.640° E

METAR

KSBP 201956Z 30012KT 10SM CLR 19/10 A2996 RMK AO2 SLP144 T01890100

Decode

TAF

TAF KSBP 201738Z 2018/2118 31008KT P6SM SCT250 FM202000 31018G28KT P6SM SCT250 FM210200 30008KT P6SM OVC012 FM210600 VRB03KT P6SM OVC015

Decode

Departure Runways

ID Width Length Bearing (true) Bearing (mag) Surface Threshold Offset Overrun Length
07 98 ft / 30 m 2,522 ft / 769 m 89.79° 77.15° Asphalt 0 ft / 0 m 0 ft / 0 m
11 151 ft / 46 m 6,106 ft / 1,861 m 124.87° 112.23° Asphalt 801 ft / 244 m 600 ft / 183 m
25 98 ft / 30 m 2,522 ft / 769 m 269.80° 257.16° Asphalt 0 ft / 0 m 0 ft / 0 m
29 151 ft / 46 m 6,106 ft / 1,861 m 304.88° 292.24° Asphalt 499 ft / 152 m 600 ft / 183 m

KWHP

Details ICAO KWHP (WHP)
Name WHITEMAN
Region United States
Timezone America/Los_Angeles (UTC-7.0)
Stats Elevation 1,003 ft / 306 m (AMSL)
Location 34.259285° -118.413490°
Runways 1
Magnetic Variation 12.031° E

METAR

KWHP 201950Z 17007KT 10SM OVC030 19/11 A2996

Decode

TAF

Not found

Destination Runways

ID Width Length Bearing (true) Bearing (mag) Surface Threshold Offset Overrun Length
12 75 ft / 23 m 4,164 ft / 1,269 m 138.87° 126.84° Asphalt 728 ft / 222 m 49 ft / 15 m
30 75 ft / 23 m 4,164 ft / 1,269 m 318.87° 306.84° Asphalt 479 ft / 146 m 69 ft / 21 m